createdAt,value
2018-09-27T00:00:54.675Z,63.75
2018-09-27T00:01:58.725Z,63.82
2018-09-27T00:03:02.748Z,63.72
2018-09-27T00:04:06.812Z,63.77
2018-09-27T00:05:10.980Z,63.74
2018-09-27T00:06:15.033Z,64.41
2018-09-27T00:07:19.402Z,63.81
2018-09-27T00:08:23.699Z,63.57
2018-09-27T00:09:27.728Z,64.12
2018-09-27T00:10:31.781Z,63.65
2018-09-27T00:11:35.857Z,64.14
2018-09-27T00:12:39.874Z,63.81
2018-09-27T00:13:43.934Z,63.52
2018-09-27T00:14:48.035Z,63.69
2018-09-27T00:15:52.420Z,64.26
2018-09-27T00:16:56.484Z,63.73
2018-09-27T00:18:00.521Z,63.59
2018-09-27T00:19:04.672Z,63.59
2018-09-27T00:20:08.840Z,63.97
2018-09-27T00:21:13.179Z,63.92
2018-09-27T00:22:17.259Z,63.43
2018-09-27T00:23:21.322Z,64.17
2018-09-27T00:24:25.387Z,64.23
2018-09-27T00:25:29.447Z,64.19
2018-09-27T00:26:33.604Z,64.10
2018-09-27T00:27:37.684Z,63.68
2018-09-27T00:28:41.996Z,63.67
2018-09-27T00:29:46.025Z,63.65
2018-09-27T00:30:50.045Z,64.20
2018-09-27T00:31:54.033Z,63.82
2018-09-27T00:32:58.199Z,64.35
2018-09-27T00:34:02.232Z,64.51
2018-09-27T00:35:06.386Z,64.22
2018-09-27T00:36:12.456Z,64.55
2018-09-27T00:37:16.470Z,64.45
2018-09-27T00:38:20.546Z,64.42
2018-09-27T00:39:24.622Z,64.10
2018-09-27T00:40:28.617Z,64.13
2018-09-27T00:41:32.728Z,64.03
2018-09-27T00:42:36.727Z,64.48
2018-09-27T00:43:40.776Z,64.53
2018-09-27T00:44:44.835Z,64.71
2018-09-27T00:45:48.852Z,63.83
2018-09-27T00:46:52.882Z,64.28
2018-09-27T00:47:56.905Z,64.18
2018-09-27T00:49:00.964Z,64.64
2018-09-27T00:50:05.508Z,64.29
2018-09-27T00:51:09.543Z,64.98
2018-09-27T00:52:13.563Z,64.39
2018-09-27T00:53:17.639Z,64.46
2018-09-27T00:54:21.771Z,64.49
2018-09-27T00:55:25.995Z,64.98
2018-09-27T00:56:30.041Z,64.47
2018-09-27T00:57:34.095Z,64.56
2018-09-27T00:58:38.147Z,65.21
2018-09-27T00:59:42.275Z,64.97
2018-09-27T01:00:46.283Z,64.81
2018-09-27T01:01:50.294Z,65.00
2018-09-27T01:02:54.319Z,65.03
2018-09-27T01:03:58.435Z,65.13
2018-09-27T01:05:02.577Z,65.15
2018-09-27T01:06:06.780Z,65.23
2018-09-27T01:07:10.806Z,64.97
2018-09-27T01:08:19.924Z,65.18
2018-09-27T01:09:24.067Z,65.17
2018-09-27T01:10:28.167Z,64.81
2018-09-27T01:11:32.194Z,64.92
2018-09-27T01:12:36.238Z,65.18
2018-09-27T01:13:42.328Z,64.88
2018-09-27T01:14:47.395Z,65.54
2018-09-27T01:15:51.537Z,65.06
2018-09-27T01:16:55.558Z,65.32
2018-09-27T01:17:59.530Z,64.54
2018-09-27T01:19:03.659Z,65.40
2018-09-27T01:20:07.679Z,64.94
2018-09-27T01:21:11.747Z,65.22
2018-09-27T01:22:15.877Z,65.50
2018-09-27T01:23:19.933Z,65.51
2018-09-27T01:24:24.014Z,64.89
2018-09-27T01:25:28.048Z,65.61
2018-09-27T01:26:32.038Z,65.24
2018-09-27T01:27:36.231Z,65.41
2018-09-27T01:28:40.239Z,65.38
2018-09-27T01:29:44.298Z,65.19
2018-09-27T01:30:48.307Z,65.05
2018-09-27T01:31:52.372Z,65.32
2018-09-27T01:32:56.382Z,65.04
2018-09-27T01:34:00.410Z,65.46
2018-09-27T01:35:04.669Z,65.44
2018-09-27T01:36:08.662Z,65.20
2018-09-27T01:37:13.013Z,65.52
2018-09-27T01:38:17.062Z,65.28
2018-09-27T01:39:21.179Z,65.41
2018-09-27T01:40:25.174Z,65.60
2018-09-27T01:41:29.197Z,65.81
2018-09-27T01:42:33.203Z,65.92
2018-09-27T01:43:37.470Z,65.46
2018-09-27T01:44:41.539Z,65.43
2018-09-27T01:45:45.803Z,65.41
2018-09-27T01:46:49.916Z,65.22
2018-09-27T01:47:53.921Z,65.61
2018-09-27T01:48:58.024Z,65.56
2018-09-27T01:50:02.032Z,65.59
2018-09-27T01:51:06.052Z,65.89
2018-09-27T01:52:10.116Z,65.50
2018-09-27T01:53:14.532Z,65.37
2018-09-27T01:54:18.595Z,65.41
2018-09-27T01:55:22.551Z,65.85
2018-09-27T01:56:26.836Z,65.65
2018-09-27T01:57:30.908Z,65.67
2018-09-27T01:58:34.979Z,65.44
2018-09-27T01:59:39.011Z,65.47
2018-09-27T02:00:43.163Z,65.78
2018-09-27T02:01:47.222Z,65.47
2018-09-27T02:02:51.255Z,65.45
2018-09-27T02:03:55.393Z,65.38
2018-09-27T02:04:59.378Z,64.96
2018-09-27T02:06:03.438Z,65.46
2018-09-27T02:07:07.478Z,65.56
2018-09-27T02:08:11.505Z,65.63
2018-09-27T02:09:15.535Z,65.48
2018-09-27T02:10:19.608Z,65.41
2018-09-27T02:11:24.096Z,65.56
2018-09-27T02:12:28.138Z,65.45
2018-09-27T02:13:32.506Z,65.54
2018-09-27T02:14:36.519Z,65.62
2018-09-27T02:15:40.582Z,65.54
2018-09-27T02:16:44.587Z,65.62
2018-09-27T02:17:48.623Z,65.22
2018-09-27T02:18:52.604Z,65.35
2018-09-27T02:19:56.703Z,65.28
2018-09-27T02:21:00.715Z,65.31
2018-09-27T02:22:04.706Z,65.19
2018-09-27T02:23:08.701Z,65.25
2018-09-27T02:24:12.732Z,65.07
2018-09-27T02:25:16.831Z,65.58
2018-09-27T02:26:20.842Z,65.54
2018-09-27T02:27:24.892Z,65.60
2018-09-27T02:28:29.030Z,65.31
2018-09-27T02:29:33.058Z,65.42
2018-09-27T02:30:37.383Z,65.50
2018-09-27T02:31:41.367Z,65.61
2018-09-27T02:32:45.362Z,65.62
2018-09-27T02:33:49.362Z,65.68
2018-09-27T02:34:53.408Z,65.60
2018-09-27T02:35:57.504Z,65.18
2018-09-27T02:37:01.536Z,65.64
2018-09-27T02:38:05.668Z,65.60
2018-09-27T02:39:10.878Z,65.26
2018-09-27T02:40:14.960Z,65.02
2018-09-27T02:41:18.963Z,64.91
2018-09-27T02:42:23.024Z,65.26
2018-09-27T02:43:27.041Z,65.11
2018-09-27T02:44:31.733Z,65.03
2018-09-27T02:45:35.739Z,64.96
2018-09-27T02:46:39.740Z,65.08
2018-09-27T02:47:44.399Z,65.08
2018-09-27T02:48:48.407Z,65.13
2018-09-27T02:49:52.522Z,65.17
2018-09-27T02:50:56.764Z,65.11
2018-09-27T02:52:01.054Z,65.18
2018-09-27T02:53:05.215Z,65.21
2018-09-27T02:54:09.194Z,65.21
2018-09-27T02:55:13.264Z,64.93
2018-09-27T02:56:17.707Z,64.57
2018-09-27T02:57:21.744Z,64.88
2018-09-27T02:58:25.715Z,65.28
2018-09-27T02:59:29.727Z,64.93
2018-09-27T03:00:33.762Z,65.05
2018-09-27T03:01:40.943Z,65.04
2018-09-27T03:02:45.314Z,64.80
2018-09-27T03:03:49.423Z,65.07
2018-09-27T03:04:53.400Z,64.87
2018-09-27T03:05:57.528Z,64.95
2018-09-27T03:07:01.563Z,64.88
2018-09-27T03:08:05.583Z,64.82
2018-09-27T03:09:11.238Z,64.89
2018-09-27T03:10:15.229Z,64.89
2018-09-27T03:11:19.266Z,64.75
2018-09-27T03:12:23.336Z,64.99
2018-09-27T03:13:27.336Z,65.00
2018-09-27T03:14:31.351Z,64.90
2018-09-27T03:15:35.344Z,64.74
2018-09-27T03:16:39.415Z,65.00
2018-09-27T03:17:43.453Z,65.40
2018-09-27T03:18:47.795Z,64.83
2018-09-27T03:19:51.771Z,65.10
2018-09-27T03:20:55.815Z,65.20
2018-09-27T03:21:59.763Z,65.26
2018-09-27T03:23:03.776Z,65.23
2018-09-27T03:24:07.908Z,65.36
2018-09-27T03:25:12.526Z,65.23
2018-09-27T03:26:16.512Z,65.08
2018-09-27T03:27:20.499Z,65.04
2018-09-27T03:28:24.959Z,65.27
2018-09-27T03:29:29.329Z,65.45
2018-09-27T03:30:33.489Z,65.47
2018-09-27T03:31:37.480Z,65.50
2018-09-27T03:32:41.487Z,65.39
2018-09-27T03:33:45.507Z,65.33
2018-09-27T03:34:49.530Z,65.22
2018-09-27T03:35:53.587Z,65.39
2018-09-27T03:36:58.040Z,65.51
2018-09-27T03:38:02.119Z,65.41
2018-09-27T03:39:07.837Z,65.48
2018-09-27T03:40:11.926Z,65.65
2018-09-27T03:41:15.892Z,65.35
2018-09-27T03:42:19.969Z,65.46
2018-09-27T03:43:23.987Z,65.52
2018-09-27T03:44:28.071Z,65.40
2018-09-27T03:45:32.163Z,65.25
2018-09-27T03:46:36.430Z,65.33
2018-09-27T03:47:40.456Z,65.41
2018-09-27T03:48:44.571Z,65.09
2018-09-27T03:49:48.738Z,65.31
2018-09-27T03:50:53.167Z,65.18
2018-09-27T03:51:57.378Z,65.14
2018-09-27T03:53:01.567Z,65.05
2018-09-27T03:54:05.594Z,64.96
2018-09-27T03:55:09.739Z,64.86
2018-09-27T03:56:13.751Z,65.24
2018-09-27T03:57:17.863Z,64.86
2018-09-27T03:58:21.872Z,64.98
2018-09-27T03:59:26.010Z,64.81
2018-09-27T04:00:30.730Z,64.70
2018-09-27T04:01:34.819Z,64.56
2018-09-27T04:02:40.251Z,64.70
2018-09-27T04:03:44.350Z,64.55
2018-09-27T04:04:48.652Z,64.58
2018-09-27T04:05:52.691Z,64.72
2018-09-27T04:06:56.815Z,64.69
2018-09-27T04:08:00.860Z,64.55
2018-09-27T04:09:07.087Z,64.69
2018-09-27T04:10:11.121Z,64.85
2018-09-27T04:11:15.171Z,64.66
2018-09-27T04:12:19.327Z,64.64
2018-09-27T04:13:23.361Z,64.70
2018-09-27T04:14:27.434Z,64.52
2018-09-27T04:15:31.551Z,64.55
2018-09-27T04:16:35.598Z,64.72
2018-09-27T04:17:39.656Z,64.64
2018-09-27T04:18:43.758Z,64.66
2018-09-27T04:19:47.805Z,64.66
2018-09-27T04:20:52.640Z,64.89
2018-09-27T04:21:56.617Z,64.59
2018-09-27T04:23:00.658Z,64.66
2018-09-27T04:24:04.691Z,64.55
2018-09-27T04:25:08.719Z,64.80
2018-09-27T04:26:12.792Z,64.56
2018-09-27T04:27:16.827Z,64.67
2018-09-27T04:28:21.709Z,64.60
2018-09-27T04:29:25.766Z,64.66
2018-09-27T04:30:29.867Z,64.59
2018-09-27T04:31:33.926Z,64.61
2018-09-27T04:32:38.001Z,64.81
2018-09-27T04:33:42.120Z,64.63
2018-09-27T04:34:46.153Z,64.65
2018-09-27T04:35:50.103Z,64.74
2018-09-27T04:36:54.149Z,64.83
2018-09-27T04:37:58.408Z,65.07
2018-09-27T04:39:02.585Z,64.72
2018-09-27T04:40:06.655Z,64.77
2018-09-27T04:41:10.737Z,64.59
2018-09-27T04:43:26.380Z,64.79
2018-09-27T04:44:30.575Z,64.73
2018-09-27T04:45:34.678Z,64.54
2018-09-27T04:46:38.756Z,64.64
2018-09-27T04:47:42.732Z,64.77
2018-09-27T04:48:46.755Z,64.73
2018-09-27T04:49:50.881Z,64.53
2018-09-27T04:50:55.140Z,64.62
2018-09-27T04:51:59.223Z,64.61
2018-09-27T04:53:03.656Z,64.42
2018-09-27T04:54:07.779Z,64.58
2018-09-27T04:55:11.867Z,64.50
2018-09-27T04:56:15.900Z,64.56
2018-09-27T04:57:19.911Z,64.59
2018-09-27T04:58:23.982Z,64.60
2018-09-27T04:59:27.975Z,64.60
2018-09-27T05:00:32.035Z,64.38
2018-09-27T05:01:36.067Z,64.47
2018-09-27T05:02:40.081Z,64.43
2018-09-27T05:03:44.133Z,64.55
2018-09-27T05:04:48.175Z,64.48
2018-09-27T05:05:52.267Z,64.45
2018-09-27T05:06:56.369Z,64.47
2018-09-27T05:08:00.491Z,64.38
2018-09-27T05:09:05.831Z,64.39
2018-09-27T05:10:09.871Z,64.48
2018-09-27T05:11:13.940Z,64.50
2018-09-27T05:12:17.983Z,64.47
2018-09-27T05:13:22.191Z,64.56
2018-09-27T05:14:26.225Z,64.38
2018-09-27T05:15:30.338Z,64.55
2018-09-27T05:16:34.453Z,64.38
2018-09-27T05:17:38.478Z,64.37
2018-09-27T05:18:42.541Z,64.53
2018-09-27T05:19:46.567Z,64.73
2018-09-27T05:20:50.571Z,64.55
2018-09-27T05:21:54.757Z,64.41
2018-09-27T05:22:58.810Z,64.69
2018-09-27T05:24:02.876Z,64.46
2018-09-27T05:25:06.894Z,64.51
2018-09-27T05:26:10.916Z,64.64
2018-09-27T05:27:14.995Z,64.55
2018-09-27T05:28:18.966Z,64.85
2018-09-27T05:29:23.030Z,64.84
2018-09-27T05:30:27.143Z,64.69
2018-09-27T05:31:31.917Z,64.96
2018-09-27T05:32:35.935Z,64.80
2018-09-27T05:33:40.026Z,64.88
2018-09-27T05:34:44.043Z,64.85
2018-09-27T05:35:48.084Z,64.91
2018-09-27T05:36:52.119Z,65.12
2018-09-27T05:37:56.343Z,64.94
2018-09-27T05:39:00.418Z,64.93
2018-09-27T05:40:04.507Z,65.12
2018-09-27T05:41:08.732Z,64.90
2018-09-27T05:42:12.787Z,65.05
2018-09-27T05:43:16.882Z,65.08
2018-09-27T05:44:20.954Z,64.99
2018-09-27T05:45:25.474Z,65.11
2018-09-27T05:46:29.486Z,65.28
2018-09-27T05:47:33.730Z,64.97
2018-09-27T05:48:37.815Z,65.08
2018-09-27T05:49:41.932Z,65.12
2018-09-27T05:50:45.939Z,65.02
2018-09-27T05:51:49.954Z,64.99
2018-09-27T05:52:53.991Z,64.96
2018-09-27T05:53:58.116Z,65.01
2018-09-27T05:55:02.180Z,64.91
2018-09-27T05:56:06.336Z,64.88
2018-09-27T05:57:10.710Z,64.89
2018-09-27T05:58:14.770Z,64.92
2018-09-27T05:59:18.831Z,64.95
2018-09-27T06:00:22.974Z,64.75
2018-09-27T06:01:28.505Z,64.96
2018-09-27T06:02:33.061Z,64.96
2018-09-27T06:03:37.791Z,64.84
2018-09-27T06:04:43.842Z,64.79
2018-09-27T06:05:48.584Z,64.74
2018-09-27T06:06:53.571Z,64.74
2018-09-27T06:07:59.067Z,64.61
2018-09-27T06:09:05.197Z,64.48
2018-09-27T06:10:09.286Z,64.67
2018-09-27T06:11:14.241Z,64.54
2018-09-27T06:12:18.880Z,64.50
2018-09-27T06:13:23.959Z,64.58
2018-09-27T06:14:28.983Z,64.20
2018-09-27T06:15:33.173Z,64.41
2018-09-27T06:16:38.775Z,64.23
2018-09-27T06:17:43.565Z,64.14
2018-09-27T06:18:49.084Z,64.16
2018-09-27T06:19:53.097Z,64.11
2018-09-27T06:20:57.102Z,64.02
2018-09-27T06:22:01.128Z,63.87
2018-09-27T06:23:05.160Z,63.80
2018-09-27T06:24:09.423Z,63.67
2018-09-27T06:25:13.591Z,63.85
2018-09-27T06:26:17.652Z,63.73
2018-09-27T06:27:21.631Z,63.58
2018-09-27T06:28:25.661Z,63.38
2018-09-27T06:29:29.674Z,63.64
2018-09-27T06:30:33.892Z,63.48
2018-09-27T06:31:38.283Z,63.40
2018-09-27T06:32:42.628Z,63.51
2018-09-27T06:33:46.663Z,63.27
2018-09-27T06:34:50.763Z,63.17
2018-09-27T06:35:54.732Z,63.07
2018-09-27T06:36:58.873Z,63.06
2018-09-27T06:38:02.933Z,63.28
2018-09-27T06:39:08.427Z,63.41
2018-09-27T06:40:12.444Z,63.00
2018-09-27T06:41:16.507Z,63.29
2018-09-27T06:42:20.496Z,63.02
2018-09-27T06:43:24.572Z,63.08
2018-09-27T06:44:28.682Z,62.75
2018-09-27T06:45:32.748Z,62.90
2018-09-27T06:46:36.749Z,62.85
2018-09-27T06:47:40.831Z,62.94
2018-09-27T06:48:44.900Z,62.74
2018-09-27T06:49:49.140Z,62.70
2018-09-27T06:50:53.204Z,62.58
2018-09-27T06:51:57.301Z,62.52
2018-09-27T06:53:01.358Z,62.50
2018-09-27T06:54:05.412Z,62.48
2018-09-27T06:55:09.502Z,62.59
2018-09-27T06:56:13.483Z,62.52
2018-09-27T06:57:17.487Z,62.57
2018-09-27T06:58:21.613Z,62.30
2018-09-27T06:59:25.638Z,62.11
2018-09-27T07:00:29.702Z,62.14
2018-09-27T07:01:33.704Z,62.11
2018-09-27T07:02:37.824Z,62.14
2018-09-27T07:03:42.087Z,61.81
2018-09-27T07:04:46.095Z,61.97
2018-09-27T07:05:50.041Z,61.97
2018-09-27T07:06:54.052Z,61.62
2018-09-27T07:07:58.107Z,61.88
2018-09-27T07:09:02.139Z,61.55
2018-09-27T07:10:06.151Z,61.72
2018-09-27T07:11:10.343Z,61.60
2018-09-27T07:12:14.411Z,61.69
2018-09-27T07:13:18.426Z,61.38
2018-09-27T07:14:22.558Z,61.30
2018-09-27T07:15:26.598Z,61.27
2018-09-27T07:16:31.170Z,61.24
2018-09-27T07:17:35.235Z,61.22
2018-09-27T07:18:39.244Z,61.38
2018-09-27T07:19:43.235Z,61.57
2018-09-27T07:20:47.292Z,61.36
2018-09-27T07:21:51.265Z,60.90
2018-09-27T07:22:55.768Z,60.97
2018-09-27T07:24:00.024Z,61.12
2018-09-27T07:25:04.201Z,60.99
2018-09-27T07:26:08.151Z,61.08
2018-09-27T07:27:12.192Z,61.13
2018-09-27T07:28:16.352Z,60.69
2018-09-27T07:29:20.362Z,60.95
2018-09-27T07:30:24.391Z,60.80
2018-09-27T07:31:28.355Z,60.70
2018-09-27T07:32:32.545Z,60.82
2018-09-27T07:33:36.862Z,60.87
2018-09-27T07:34:40.922Z,60.85
2018-09-27T07:35:45.334Z,60.77
2018-09-27T07:36:49.325Z,60.97
2018-09-27T07:37:53.336Z,61.04
2018-09-27T07:38:57.384Z,60.42
2018-09-27T07:40:01.506Z,61.04
2018-09-27T07:41:05.551Z,60.80
2018-09-27T07:42:09.661Z,60.81
2018-09-27T07:43:13.718Z,60.39
2018-09-27T07:44:17.735Z,60.65
2018-09-27T07:45:21.944Z,60.80
2018-09-27T07:46:26.262Z,60.58
2018-09-27T07:47:30.318Z,60.66
2018-09-27T07:48:34.317Z,60.13
2018-09-27T07:49:45.349Z,60.42
2018-09-27T07:50:49.515Z,60.30
2018-09-27T07:51:53.747Z,60.25
2018-09-27T07:52:57.784Z,60.20
2018-09-27T07:54:01.808Z,60.44
2018-09-27T07:55:05.963Z,60.58
2018-09-27T07:56:09.944Z,60.49
2018-09-27T07:57:14.244Z,60.51
2018-09-27T07:58:18.423Z,60.01
2018-09-27T07:59:22.458Z,60.43
2018-09-27T08:00:26.459Z,60.39
2018-09-27T08:01:30.763Z,59.88
2018-09-27T08:02:34.842Z,59.79
2018-09-27T08:03:38.819Z,60.19
2018-09-27T08:04:42.952Z,59.75
2018-09-27T08:05:47.048Z,59.92
2018-09-27T08:06:51.303Z,59.49
2018-09-27T08:07:55.518Z,59.67
2018-09-27T08:08:59.514Z,59.48
2018-09-27T08:10:03.523Z,59.38
2018-09-27T08:11:07.944Z,59.24
2018-09-27T08:12:12.784Z,59.66
2018-09-27T08:13:18.192Z,59.34
2018-09-27T08:14:22.221Z,59.28
2018-09-27T08:15:26.518Z,59.21
2018-09-27T08:16:30.660Z,59.07
2018-09-27T08:17:34.664Z,59.05
2018-09-27T08:18:38.732Z,58.91
2018-09-27T08:19:42.730Z,59.06
2018-09-27T08:20:46.800Z,59.54
2018-09-27T08:21:50.795Z,59.30
2018-09-27T08:22:56.139Z,59.22
2018-09-27T08:24:00.505Z,58.77
2018-09-27T08:25:04.542Z,58.91
2018-09-27T08:26:08.563Z,58.90
2018-09-27T08:27:12.596Z,59.09
2018-09-27T08:28:16.558Z,59.21
2018-09-27T08:29:20.568Z,58.74
2018-09-27T08:30:24.597Z,59.04
2018-09-27T08:31:28.604Z,58.48
2018-09-27T08:32:32.925Z,58.68
2018-09-27T08:33:36.891Z,58.64
2018-09-27T08:34:40.920Z,59.16
2018-09-27T08:35:44.984Z,58.96
2018-09-27T08:36:50.144Z,59.06
2018-09-27T08:37:54.155Z,58.90
2018-09-27T08:38:58.188Z,58.63
2018-09-27T08:40:02.255Z,58.66
2018-09-27T08:41:06.554Z,58.50
2018-09-27T08:42:11.424Z,58.98
2018-09-27T08:43:15.531Z,59.16
2018-09-27T08:44:19.548Z,58.86
2018-09-27T08:45:24.194Z,58.79
2018-09-27T08:46:28.698Z,58.34
2018-09-27T08:47:32.723Z,58.07
2018-09-27T08:48:36.749Z,58.01
2018-09-27T08:49:40.767Z,58.02
2018-09-27T08:50:44.827Z,58.33
2018-09-27T08:51:49.355Z,57.99
2018-09-27T08:52:53.411Z,58.25
2018-09-27T08:53:57.567Z,57.99
2018-09-27T08:55:01.763Z,57.97
2018-09-27T08:56:05.875Z,57.52
2018-09-27T08:57:09.986Z,57.90
2018-09-27T08:58:14.052Z,57.99
2018-09-27T08:59:18.087Z,57.23
2018-09-27T09:00:22.128Z,57.05
2018-09-27T09:01:26.954Z,57.58
2018-09-27T09:02:30.980Z,57.02
2018-09-27T09:03:35.140Z,56.71
2018-09-27T09:04:39.197Z,56.71
2018-09-27T09:05:43.239Z,56.77
2018-09-27T09:06:47.255Z,56.50
2018-09-27T09:07:51.274Z,56.81
2018-09-27T09:08:55.361Z,56.96
2018-09-27T09:09:59.627Z,56.36
2018-09-27T09:11:03.679Z,56.29
2018-09-27T09:12:07.798Z,56.68
2018-09-27T09:13:11.797Z,55.86
2018-09-27T09:14:15.815Z,56.55
2018-09-27T09:15:20.828Z,56.05
2018-09-27T09:16:25.005Z,56.35
2018-09-27T09:18:49.196Z,55.75
2018-09-27T09:19:53.276Z,55.21
2018-09-27T09:20:57.256Z,55.66
2018-09-27T09:22:01.402Z,55.60
2018-09-27T09:23:05.386Z,55.15
2018-09-27T09:24:09.416Z,55.52
2018-09-27T09:25:13.957Z,55.46
2018-09-27T09:26:17.989Z,54.91
2018-09-27T09:27:22.645Z,54.80
2018-09-27T09:28:26.745Z,55.09
2018-09-27T09:29:30.739Z,54.63
2018-09-27T09:30:35.001Z,54.76
2018-09-27T09:31:39.007Z,54.85
2018-09-27T09:32:43.427Z,54.11
2018-09-27T09:33:47.506Z,54.25
2018-09-27T09:34:53.896Z,54.82
2018-09-27T09:35:59.280Z,54.59
2018-09-27T09:37:03.266Z,54.07
2018-09-27T09:38:08.523Z,54.60
2018-09-27T09:39:12.538Z,53.95
2018-09-27T09:40:18.852Z,54.52
2018-09-27T09:41:22.919Z,53.96
2018-09-27T09:42:26.948Z,53.91
2018-09-27T09:43:30.958Z,54.10
2018-09-27T09:44:35.069Z,53.94
2018-09-27T09:45:39.359Z,53.91
2018-09-27T09:46:43.398Z,54.07
2018-09-27T09:47:47.419Z,53.68
2018-09-27T09:48:51.386Z,54.05
2018-09-27T09:49:56.115Z,54.30
2018-09-27T09:51:00.127Z,54.17
2018-09-27T09:52:04.134Z,53.82
2018-09-27T09:53:08.108Z,53.62
2018-09-27T09:54:12.099Z,53.22
2018-09-27T09:55:16.140Z,53.32
2018-09-27T09:56:20.257Z,53.32
2018-09-27T09:57:24.210Z,53.91
2018-09-27T09:58:28.220Z,53.14
2018-09-27T09:59:32.279Z,53.33
2018-09-27T10:00:37.802Z,53.92
2018-09-27T10:01:41.820Z,53.99
2018-09-27T10:02:45.848Z,53.74
2018-09-27T10:03:49.906Z,53.29
2018-09-27T10:04:54.375Z,53.70
2018-09-27T10:05:58.699Z,53.29
2018-09-27T10:07:02.854Z,53.79
2018-09-27T10:08:06.913Z,53.18
2018-09-27T10:09:12.092Z,53.47
2018-09-27T10:10:16.071Z,52.94
2018-09-27T10:11:20.124Z,52.70
2018-09-27T10:12:24.234Z,53.17
2018-09-27T10:13:28.168Z,53.10
2018-09-27T10:14:32.238Z,52.28
2018-09-27T10:15:36.214Z,52.72
2018-09-27T10:16:40.190Z,52.41
2018-09-27T10:17:44.203Z,51.44
2018-09-27T10:18:48.336Z,51.23
2018-09-27T10:19:52.323Z,50.84
2018-09-27T10:20:56.625Z,51.03
2018-09-27T10:22:00.733Z,50.40
2018-09-27T10:23:04.654Z,50.49
2018-09-27T10:24:08.756Z,50.76
2018-09-27T10:25:12.769Z,50.11
2018-09-27T10:26:16.824Z,50.51
2018-09-27T10:27:20.831Z,50.90
2018-09-27T10:28:24.812Z,50.91
2018-09-27T10:29:28.836Z,50.33
2018-09-27T10:30:32.815Z,51.08
2018-09-27T10:31:36.803Z,51.34
2018-09-27T10:32:41.606Z,50.89
2018-09-27T10:33:46.508Z,51.55
2018-09-27T10:34:50.553Z,51.56
2018-09-27T10:35:54.527Z,50.95
2018-09-27T10:36:58.581Z,51.54
2018-09-27T10:38:02.718Z,51.30
2018-09-27T10:39:08.676Z,51.32
2018-09-27T10:40:13.207Z,50.88
2018-09-27T10:41:19.326Z,51.09
2018-09-27T10:42:23.364Z,51.27
2018-09-27T10:43:27.327Z,50.57
2018-09-27T10:44:31.393Z,50.89
2018-09-27T10:45:35.546Z,50.53
2018-09-27T10:46:39.652Z,50.49
2018-09-27T10:47:44.195Z,50.42
2018-09-27T10:48:48.235Z,50.72
2018-09-27T10:49:52.260Z,50.86
2018-09-27T10:50:56.566Z,51.08
2018-09-27T10:52:00.984Z,50.28
2018-09-27T10:53:06.599Z,50.73
2018-09-27T10:54:10.605Z,50.42
2018-09-27T10:55:14.795Z,50.66
2018-09-27T10:56:18.855Z,50.82
2018-09-27T10:57:23.083Z,50.64
2018-09-27T10:58:27.078Z,50.43
2018-09-27T10:59:31.232Z,50.61
2018-09-27T11:00:35.202Z,51.01
2018-09-27T11:01:39.284Z,50.87
2018-09-27T11:02:43.275Z,50.83
2018-09-27T11:03:48.156Z,50.52
2018-09-27T11:04:52.862Z,50.22
2018-09-27T11:05:57.024Z,50.60
2018-09-27T11:07:01.844Z,49.99
2018-09-27T11:08:06.146Z,50.46
2018-09-27T11:09:10.497Z,50.34
2018-09-27T11:10:14.509Z,49.76
2018-09-27T11:11:18.571Z,49.26
2018-09-27T11:12:22.546Z,49.76
2018-09-27T11:13:27.850Z,49.83
2018-09-27T11:14:31.874Z,49.79
2018-09-27T11:15:36.983Z,49.37
2018-09-27T11:16:41.660Z,49.86
2018-09-27T11:17:45.754Z,50.01
2018-09-27T11:18:50.090Z,49.20
2018-09-27T11:19:54.152Z,49.88
2018-09-27T11:20:58.200Z,49.25
2018-09-27T11:22:03.491Z,49.01
2018-09-27T11:23:07.977Z,48.89
2018-09-27T11:24:13.564Z,49.09
2018-09-27T11:25:17.641Z,48.63
2018-09-27T11:26:21.735Z,48.59
2018-09-27T11:27:26.144Z,48.48
2018-09-27T11:28:36.181Z,47.87
2018-09-27T11:29:45.538Z,47.67
2018-09-27T11:30:55.901Z,46.98
2018-09-27T11:33:07.354Z,46.58
2018-09-27T11:34:11.430Z,46.90
2018-09-27T11:35:16.393Z,46.82
2018-09-27T11:36:21.558Z,46.40
2018-09-27T11:37:25.782Z,46.68
2018-09-27T11:38:31.569Z,46.52
2018-09-27T11:39:37.627Z,46.13
2018-09-27T11:40:41.632Z,45.30
2018-09-27T11:41:45.634Z,46.00
2018-09-27T11:42:49.732Z,45.42
2018-09-27T11:43:53.754Z,45.32
2018-09-27T11:44:57.943Z,44.65
2018-09-27T11:46:02.049Z,44.33
2018-09-27T11:47:07.170Z,43.88
2018-09-27T11:48:12.183Z,43.75
2018-09-27T11:49:16.576Z,42.92
2018-09-27T11:50:20.619Z,43.15
2018-09-27T11:51:24.516Z,42.93
2018-09-27T11:52:28.543Z,42.23
2018-09-27T11:53:33.269Z,42.21
2018-09-27T11:54:38.368Z,41.44
2018-09-27T11:55:43.453Z,40.90
2018-09-27T11:56:47.504Z,41.31
2018-09-27T11:57:52.293Z,40.51
2018-09-27T11:58:56.717Z,40.36
2018-09-27T12:00:01.329Z,40.92
2018-09-27T12:01:06.291Z,40.83
2018-09-27T12:02:10.951Z,40.92
2018-09-27T12:03:14.887Z,41.25
2018-09-27T12:04:18.894Z,41.76
2018-09-27T12:05:23.547Z,41.36
2018-09-27T12:06:27.612Z,41.23
2018-09-27T12:07:31.619Z,41.30
2018-09-27T12:08:35.627Z,41.68
2018-09-27T12:09:39.591Z,41.78
2018-09-27T12:10:43.768Z,42.09
2018-09-27T12:11:47.855Z,41.79
2018-09-27T12:12:51.914Z,42.31
2018-09-27T12:13:56.434Z,42.10
2018-09-27T12:15:00.495Z,41.50
2018-09-27T12:16:04.559Z,41.49
2018-09-27T12:17:09.701Z,41.64
2018-09-27T12:18:13.805Z,41.48
2018-09-27T12:19:17.878Z,41.92
2018-09-27T12:20:21.927Z,41.51
2018-09-27T12:21:25.898Z,41.78
2018-09-27T12:22:30.753Z,41.23
2018-09-27T12:23:34.836Z,41.14
2018-09-27T12:24:38.891Z,40.87
2018-09-27T12:25:43.041Z,41.37
2018-09-27T12:26:46.932Z,40.81
2018-09-27T12:27:50.902Z,40.36
2018-09-27T12:28:54.871Z,40.74
2018-09-27T12:29:58.885Z,40.49
2018-09-27T12:31:02.857Z,40.75
2018-09-27T12:32:06.827Z,40.33
2018-09-27T12:33:11.591Z,40.48
2018-09-27T12:34:17.560Z,40.09
2018-09-27T12:35:21.557Z,39.44
2018-09-27T12:36:26.527Z,39.63
2018-09-27T12:37:30.584Z,39.77
2018-09-27T12:38:35.980Z,39.56
2018-09-27T12:39:39.960Z,39.78
2018-09-27T12:40:43.977Z,39.64
2018-09-27T12:41:48.033Z,39.25
2018-09-27T12:42:52.016Z,39.01
2018-09-27T12:43:55.943Z,39.10
2018-09-27T12:45:01.328Z,38.83
2018-09-27T12:46:05.395Z,39.04
2018-09-27T12:47:09.252Z,38.79
2018-09-27T12:48:13.365Z,39.17
2018-09-27T12:49:18.248Z,38.82
2018-09-27T12:50:22.331Z,39.23
2018-09-27T12:51:27.254Z,39.16
2018-09-27T12:52:32.197Z,38.90
2018-09-27T12:53:36.894Z,39.65
2018-09-27T12:54:40.982Z,39.38
2018-09-27T12:55:45.383Z,39.56
2018-09-27T12:56:49.446Z,38.45
2018-09-27T12:57:53.518Z,38.46
2018-09-27T12:58:57.543Z,38.43
2018-09-27T13:00:01.571Z,37.69
2018-09-27T13:01:05.628Z,37.51
2018-09-27T13:02:09.841Z,37.69
2018-09-27T13:03:13.879Z,37.70
2018-09-27T13:04:17.843Z,37.24
2018-09-27T13:05:22.396Z,36.81
2018-09-27T13:06:26.482Z,36.63
2018-09-27T13:07:30.444Z,36.75
2018-09-27T13:08:35.980Z,37.26
2018-09-27T13:09:40.140Z,36.46
2018-09-27T13:10:44.273Z,37.46
2018-09-27T13:11:48.290Z,37.23
2018-09-27T13:12:52.364Z,37.66
2018-09-27T13:13:56.330Z,37.76
2018-09-27T13:15:01.152Z,37.45
2018-09-27T13:16:05.264Z,37.06
2018-09-27T13:17:09.178Z,37.60
2018-09-27T13:18:13.109Z,37.16
2018-09-27T13:19:17.149Z,37.99
2018-09-27T13:20:22.462Z,37.85
2018-09-27T13:21:26.474Z,37.71
2018-09-27T13:22:30.556Z,38.26
2018-09-27T13:23:34.624Z,38.13
2018-09-27T13:24:38.669Z,38.21
2018-09-27T13:25:42.740Z,38.19
2018-09-27T13:26:46.752Z,38.20
2018-09-27T13:27:51.372Z,38.01
2018-09-27T13:28:55.424Z,38.38
2018-09-27T13:29:59.502Z,38.16
2018-09-27T13:31:05.095Z,38.09
2018-09-27T13:32:09.095Z,38.63
2018-09-27T13:33:13.118Z,38.15
2018-09-27T13:34:18.633Z,38.38
2018-09-27T13:35:22.630Z,38.69
2018-09-27T13:36:26.675Z,38.17
2018-09-27T13:37:30.736Z,38.30
2018-09-27T13:38:34.717Z,38.58
2018-09-27T13:39:38.736Z,38.93
2018-09-27T13:40:42.729Z,38.65
2018-09-27T13:41:47.058Z,38.75
2018-09-27T13:42:51.823Z,38.81
2018-09-27T13:43:55.791Z,39.12
2018-09-27T13:44:59.828Z,38.94
2018-09-27T13:46:04.503Z,39.14
2018-09-27T13:47:09.449Z,39.29
2018-09-27T13:48:13.572Z,39.32
2018-09-27T13:49:17.605Z,39.22
2018-09-27T13:50:21.603Z,39.15
2018-09-27T13:51:25.709Z,38.96